sensor_id;sensor_type;location;lat;lon;timestamp;pressure;altitude;pressure_sealevel;temperature;humidity
60974;BME280;46846;51.528;5.076;2023-04-27T00:00:10;101547.28;;;7.38;66.59
60974;BME280;46846;51.528;5.076;2023-04-27T00:02:37;101546.41;;;7.36;66.27
60974;BME280;46846;51.528;5.076;2023-04-27T00:05:03;101547.34;;;7.34;66.63
60974;BME280;46846;51.528;5.076;2023-04-27T00:07:29;101547.34;;;7.32;66.60
60974;BME280;46846;51.528;5.076;2023-04-27T00:09:54;101543.81;;;7.32;66.55
60974;BME280;46846;51.528;5.076;2023-04-27T00:12:20;101550.91;;;7.28;66.40
60974;BME280;46846;51.528;5.076;2023-04-27T00:14:45;101556.19;;;7.28;66.54
60974;BME280;46846;51.528;5.076;2023-04-27T00:17:10;101558.00;;;7.24;66.17
60974;BME280;46846;51.528;5.076;2023-04-27T00:19:35;101560.66;;;7.24;66.48
60974;BME280;46846;51.528;5.076;2023-04-27T00:22:01;101558.03;;;7.21;66.27
60974;BME280;46846;51.528;5.076;2023-04-27T00:24:26;101557.19;;;7.19;66.52
60974;BME280;46846;51.528;5.076;2023-04-27T00:26:53;101555.41;;;7.18;66.22
60974;BME280;46846;51.528;5.076;2023-04-27T00:29:18;101555.44;;;7.17;66.13
60974;BME280;46846;51.528;5.076;2023-04-27T00:31:43;101551.91;;;7.16;66.11
60974;BME280;46846;51.528;5.076;2023-04-27T00:34:09;101549.28;;;7.13;66.13
60974;BME280;46846;51.528;5.076;2023-04-27T00:36:34;101547.53;;;7.12;66.10
60974;BME280;46846;51.528;5.076;2023-04-27T00:38:59;101549.28;;;7.11;66.29
60974;BME280;46846;51.528;5.076;2023-04-27T00:41:25;101545.78;;;7.08;66.56
60974;BME280;46846;51.528;5.076;2023-04-27T00:43:50;101550.22;;;7.07;66.00
60974;BME280;46846;51.528;5.076;2023-04-27T00:46:15;101545.84;;;7.05;66.11
60974;BME280;46846;51.528;5.076;2023-04-27T00:48:41;101543.19;;;7.05;66.63
60974;BME280;46846;51.528;5.076;2023-04-27T00:51:06;101541.44;;;7.02;65.87
60974;BME280;46846;51.528;5.076;2023-04-27T00:53:32;101547.63;;;7.00;65.92
60974;BME280;46846;51.528;5.076;2023-04-27T00:55:58;101544.13;;;6.96;66.25
60974;BME280;46846;51.528;5.076;2023-04-27T00:58:23;101540.59;;;6.95;66.17
60974;BME280;46846;51.528;5.076;2023-04-27T01:00:48;101548.56;;;6.92;66.05
60974;BME280;46846;51.528;5.076;2023-04-27T01:03:15;101549.47;;;6.91;66.50
60974;BME280;46846;51.528;5.076;2023-04-27T01:05:40;101540.66;;;6.89;66.43
60974;BME280;46846;51.528;5.076;2023-04-27T01:08:06;101544.16;;;6.88;65.97
60974;BME280;46846;51.528;5.076;2023-04-27T01:10:31;101545.97;;;6.86;65.94
60974;BME280;46846;51.528;5.076;2023-04-27T01:12:56;101543.31;;;6.84;66.05
60974;BME280;46846;51.528;5.076;2023-04-27T01:15:22;101544.22;;;6.85;65.83
60974;BME280;46846;51.528;5.076;2023-04-27T01:17:47;101547.75;;;6.84;66.13
60974;BME280;46846;51.528;5.076;2023-04-27T01:20:12;101549.53;;;6.82;66.13
60974;BME280;46846;51.528;5.076;2023-04-27T01:22:38;101543.34;;;6.80;66.37
60974;BME280;46846;51.528;5.076;2023-04-27T01:25:04;101538.09;;;6.77;65.71
60974;BME280;46846;51.528;5.076;2023-04-27T01:27:30;101542.50;;;6.78;66.20
60974;BME280;46846;51.528;5.076;2023-04-27T01:29:55;101539.88;;;6.73;66.11
60974;BME280;46846;51.528;5.076;2023-04-27T01:32:21;101544.28;;;6.73;65.71
60974;BME280;46846;51.528;5.076;2023-04-27T01:34:46;101544.31;;;6.69;66.14
60974;BME280;46846;51.528;5.076;2023-04-27T01:37:11;101538.19;;;6.67;65.84
60974;BME280;46846;51.528;5.076;2023-04-27T01:39:37;101545.22;;;6.67;66.30
60974;BME280;46846;51.528;5.076;2023-04-27T01:42:02;101539.06;;;6.66;66.23
60974;BME280;46846;51.528;5.076;2023-04-27T01:44:27;101538.19;;;6.64;66.06
60974;BME280;46846;51.528;5.076;2023-04-27T01:46:53;101541.72;;;6.62;66.33
60974;BME280;46846;51.528;5.076;2023-04-27T01:49:18;101542.59;;;6.61;66.22
60974;BME280;46846;51.528;5.076;2023-04-27T01:51:43;101536.47;;;6.57;65.94
60974;BME280;46846;51.528;5.076;2023-04-27T01:54:09;101536.50;;;6.54;66.07
60974;BME280;46846;51.528;5.076;2023-04-27T01:56:34;101529.44;;;6.53;66.04
60974;BME280;46846;51.528;5.076;2023-04-27T01:58:59;101530.34;;;6.52;65.86
60974;BME280;46846;51.528;5.076;2023-04-27T02:01:25;101530.34;;;6.52;65.76
60974;BME280;46846;51.528;5.076;2023-04-27T02:03:50;101526.81;;;6.50;65.99
60974;BME280;46846;51.528;5.076;2023-04-27T02:06:15;101518.91;;;6.47;65.92
60974;BME280;46846;51.528;5.076;2023-04-27T02:08:41;101517.13;;;6.49;65.82
60974;BME280;46846;51.528;5.076;2023-04-27T02:11:06;101518.06;;;6.45;66.00
60974;BME280;46846;51.528;5.076;2023-04-27T02:13:31;101522.44;;;6.46;66.16
60974;BME280;46846;51.528;5.076;2023-04-27T02:15:56;101521.56;;;6.43;66.15
60974;BME280;46846;51.528;5.076;2023-04-27T02:18:22;101518.91;;;6.43;65.95
60974;BME280;46846;51.528;5.076;2023-04-27T02:20:48;101518.09;;;6.38;66.09
60974;BME280;46846;51.528;5.076;2023-04-27T02:23:13;101508.41;;;6.36;65.61
60974;BME280;46846;51.528;5.076;2023-04-27T02:25:39;101504.91;;;6.34;66.05
60974;BME280;46846;51.528;5.076;2023-04-27T02:28:06;101503.16;;;6.31;66.24
60974;BME280;46846;51.528;5.076;2023-04-27T02:30:32;101505.78;;;6.31;65.71
60974;BME280;46846;51.528;5.076;2023-04-27T02:32:58;101503.16;;;6.29;65.90
60974;BME280;46846;51.528;5.076;2023-04-27T02:35:23;101498.78;;;6.24;65.85
60974;BME280;46846;51.528;5.076;2023-04-27T02:37:48;101504.97;;;6.23;66.35
60974;BME280;46846;51.528;5.076;2023-04-27T02:40:14;101506.72;;;6.24;66.05
60974;BME280;46846;51.528;5.076;2023-04-27T02:42:39;101496.13;;;6.22;66.12
60974;BME280;46846;51.528;5.076;2023-04-27T02:45:05;101506.72;;;6.25;65.61
60974;BME280;46846;51.528;5.076;2023-04-27T02:47:31;101514.63;;;6.21;65.77
60974;BME280;46846;51.528;5.076;2023-04-27T02:49:56;101509.38;;;6.19;66.08
60974;BME280;46846;51.528;5.076;2023-04-27T02:52:21;101510.25;;;6.21;65.80
60974;BME280;46846;51.528;5.076;2023-04-27T02:54:47;101505.00;;;6.17;65.36
60974;BME280;46846;51.528;5.076;2023-04-27T02:57:12;101510.28;;;6.15;65.36
60974;BME280;46846;51.528;5.076;2023-04-27T02:59:37;101503.25;;;6.11;65.63
60974;BME280;46846;51.528;5.076;2023-04-27T03:02:03;101502.34;;;6.13;65.51
60974;BME280;46846;51.528;5.076;2023-04-27T03:04:28;101501.47;;;6.13;65.41
60974;BME280;46846;51.528;5.076;2023-04-27T03:06:53;101504.13;;;6.11;66.19
60974;BME280;46846;51.528;5.076;2023-04-27T03:09:19;101506.75;;;6.10;65.95
60974;BME280;46846;51.528;5.076;2023-04-27T03:11:44;101512.09;;;6.08;65.47
60974;BME280;46846;51.528;5.076;2023-04-27T03:14:09;101498.91;;;6.02;65.62
60974;BME280;46846;51.528;5.076;2023-04-27T03:16:36;101504.16;;;5.99;65.67
60974;BME280;46846;51.528;5.076;2023-04-27T03:19:01;101506.81;;;5.97;65.74
60974;BME280;46846;51.528;5.076;2023-04-27T03:21:27;101507.69;;;5.96;65.66
60974;BME280;46846;51.528;5.076;2023-04-27T03:23:53;101502.41;;;5.95;66.07
60974;BME280;46846;51.528;5.076;2023-04-27T03:26:18;101506.81;;;5.96;65.96
60974;BME280;46846;51.528;5.076;2023-04-27T03:28:44;101511.22;;;5.94;65.62
60974;BME280;46846;51.528;5.076;2023-04-27T03:31:10;101516.50;;;5.92;65.69
60974;BME280;46846;51.528;5.076;2023-04-27T03:33:36;101514.75;;;5.93;65.88
60974;BME280;46846;51.528;5.076;2023-04-27T03:36:02;101518.28;;;5.92;65.39
60974;BME280;46846;51.528;5.076;2023-04-27T03:38:28;101518.28;;;5.90;65.66
60974;BME280;46846;51.528;5.076;2023-04-27T03:40:54;101519.16;;;5.86;65.62
60974;BME280;46846;51.528;5.076;2023-04-27T03:43:19;101521.84;;;5.81;65.43
60974;BME280;46846;51.528;5.076;2023-04-27T03:45:45;101520.06;;;5.83;65.69
60974;BME280;46846;51.528;5.076;2023-04-27T03:48:10;101526.22;;;5.84;65.85
60974;BME280;46846;51.528;5.076;2023-04-27T03:50:35;101520.06;;;5.80;65.57
60974;BME280;46846;51.528;5.076;2023-04-27T03:53:00;101520.97;;;5.79;65.45
60974;BME280;46846;51.528;5.076;2023-04-27T03:55:26;101532.41;;;5.78;65.58
60974;BME280;46846;51.528;5.076;2023-04-27T03:57:51;101532.41;;;5.75;65.58
60974;BME280;46846;51.528;5.076;2023-04-27T04:00:17;101527.16;;;5.73;66.40
60974;BME280;46846;51.528;5.076;2023-04-27T04:02:42;101529.78;;;5.72;65.60
60974;BME280;46846;51.528;5.076;2023-04-27T04:05:08;101523.66;;;5.70;65.59
60974;BME280;46846;51.528;5.076;2023-04-27T04:07:33;101526.28;;;5.70;65.68
60974;BME280;46846;51.528;5.076;2023-04-27T04:09:59;101528.94;;;5.70;65.65
60974;BME280;46846;51.528;5.076;2023-04-27T04:12:24;101531.56;;;5.68;65.93
60974;BME280;46846;51.528;5.076;2023-04-27T04:14:49;101529.81;;;5.66;65.51
60974;BME280;46846;51.528;5.076;2023-04-27T04:17:15;101529.81;;;5.63;65.51
60974;BME280;46846;51.528;5.076;2023-04-27T04:19:41;101528.97;;;5.59;65.78
60974;BME280;46846;51.528;5.076;2023-04-27T04:22:06;101536.88;;;5.56;66.31
60974;BME280;46846;51.528;5.076;2023-04-27T04:24:31;101531.59;;;5.59;65.92
60974;BME280;46846;51.528;5.076;2023-04-27T04:26:56;101535.09;;;5.53;65.93
60974;BME280;46846;51.528;5.076;2023-04-27T04:29:22;101543.03;;;5.53;66.04
60974;BME280;46846;51.528;5.076;2023-04-27T04:31:48;101533.34;;;5.54;65.96
60974;BME280;46846;51.528;5.076;2023-04-27T04:34:13;101543.03;;;5.50;66.24
60974;BME280;46846;51.528;5.076;2023-04-27T04:36:39;101541.28;;;5.51;65.75
60974;BME280;46846;51.528;5.076;2023-04-27T04:39:05;101543.94;;;5.51;65.90
60974;BME280;46846;51.528;5.076;2023-04-27T04:41:31;101544.81;;;5.46;66.01
60974;BME280;46846;51.528;5.076;2023-04-27T04:43:57;101550.09;;;5.46;65.79
60974;BME280;46846;51.528;5.076;2023-04-27T04:46:22;101549.19;;;5.46;65.94
60974;BME280;46846;51.528;5.076;2023-04-27T04:48:48;101553.63;;;5.47;65.74
60974;BME280;46846;51.528;5.076;2023-04-27T04:51:14;101550.97;;;5.45;65.60
60974;BME280;46846;51.528;5.076;2023-04-27T04:53:39;101559.78;;;5.44;66.08
60974;BME280;46846;51.528;5.076;2023-04-27T04:56:08;101559.78;;;5.40;65.25
60974;BME280;46846;51.528;5.076;2023-04-27T04:58:34;101558.03;;;5.42;65.89
60974;BME280;46846;51.528;5.076;2023-04-27T05:00:59;101565.94;;;5.40;65.99
60974;BME280;46846;51.528;5.076;2023-04-27T05:03:25;101558.88;;;5.38;65.49
60974;BME280;46846;51.528;5.076;2023-04-27T05:05:51;101562.41;;;5.38;65.57
60974;BME280;46846;51.528;5.076;2023-04-27T05:08:16;101557.13;;;5.35;65.98
60974;BME280;46846;51.528;5.076;2023-04-27T05:10:42;101558.91;;;5.33;65.99
60974;BME280;46846;51.528;5.076;2023-04-27T05:13:12;101564.19;;;5.34;65.44
60974;BME280;46846;51.528;5.076;2023-04-27T05:15:37;101565.03;;;5.35;66.05
60974;BME280;46846;51.528;5.076;2023-04-27T05:18:03;101569.47;;;5.31;66.00
60974;BME280;46846;51.528;5.076;2023-04-27T05:20:28;101573.88;;;5.28;65.89
60974;BME280;46846;51.528;5.076;2023-04-27T05:22:53;101567.69;;;5.30;65.86
60974;BME280;46846;51.528;5.076;2023-04-27T05:25:18;101566.84;;;5.30;66.03
60974;BME280;46846;51.528;5.076;2023-04-27T05:27:44;101578.25;;;5.27;65.45
60974;BME280;46846;51.528;5.076;2023-04-27T05:30:09;101579.16;;;5.20;65.38
60974;BME280;46846;51.528;5.076;2023-04-27T05:32:35;101579.16;;;5.15;65.75
60974;BME280;46846;51.528;5.076;2023-04-27T05:35:01;101579.16;;;5.15;66.17
60974;BME280;46846;51.528;5.076;2023-04-27T05:37:26;101576.50;;;5.14;65.58
60974;BME280;46846;51.528;5.076;2023-04-27T05:39:52;101579.13;;;5.14;66.43
60974;BME280;46846;51.528;5.076;2023-04-27T05:42:17;101581.78;;;5.17;66.04
60974;BME280;46846;51.528;5.076;2023-04-27T05:44:42;101576.50;;;5.18;65.83
60974;BME280;46846;51.528;5.076;2023-04-27T05:47:08;101581.78;;;5.20;66.59
60974;BME280;46846;51.528;5.076;2023-04-27T05:49:33;101578.25;;;5.15;66.60
60974;BME280;46846;51.528;5.076;2023-04-27T05:51:58;101577.38;;;5.16;66.17
60974;BME280;46846;51.528;5.076;2023-04-27T05:54:23;101580.00;;;5.22;65.87
60974;BME280;46846;51.528;5.076;2023-04-27T05:56:49;101580.91;;;5.18;66.81
60974;BME280;46846;51.528;5.076;2023-04-27T05:59:15;101579.16;;;5.17;66.61
60974;BME280;46846;51.528;5.076;2023-04-27T06:01:40;101585.31;;;5.19;66.36
60974;BME280;46846;51.528;5.076;2023-04-27T06:04:05;101587.94;;;5.20;66.40
60974;BME280;46846;51.528;5.076;2023-04-27T06:06:31;101587.06;;;5.15;66.53
60974;BME280;46846;51.528;5.076;2023-04-27T06:08:57;101583.53;;;5.23;65.96
60974;BME280;46846;51.528;5.076;2023-04-27T06:11:22;101576.50;;;5.25;65.75
60974;BME280;46846;51.528;5.076;2023-04-27T06:13:47;101573.84;;;5.23;66.09
60974;BME280;46846;51.528;5.076;2023-04-27T06:16:13;101568.56;;;5.23;66.49
60974;BME280;46846;51.528;5.076;2023-04-27T06:18:38;101579.16;;;5.26;66.17
60974;BME280;46846;51.528;5.076;2023-04-27T06:21:03;101581.78;;;5.25;66.58
60974;BME280;46846;51.528;5.076;2023-04-27T06:23:29;101579.13;;;5.25;66.28
60974;BME280;46846;51.528;5.076;2023-04-27T06:25:54;101590.56;;;5.28;66.75
60974;BME280;46846;51.528;5.076;2023-04-27T06:28:19;101590.56;;;5.28;66.69
60974;BME280;46846;51.528;5.076;2023-04-27T06:30:45;101584.44;;;5.32;66.85
60974;BME280;46846;51.528;5.076;2023-04-27T06:33:10;101592.31;;;5.34;66.71
60974;BME280;46846;51.528;5.076;2023-04-27T06:35:35;101589.69;;;5.34;66.65
60974;BME280;46846;51.528;5.076;2023-04-27T06:38:01;101590.56;;;5.38;66.82
60974;BME280;46846;51.528;5.076;2023-04-27T06:40:27;101579.16;;;5.37;66.56
60974;BME280;46846;51.528;5.076;2023-04-27T06:42:52;101585.31;;;5.41;66.69
60974;BME280;46846;51.528;5.076;2023-04-27T06:45:17;101583.53;;;5.41;66.68
60974;BME280;46846;51.528;5.076;2023-04-27T06:47:43;101585.28;;;5.44;66.64
60974;BME280;46846;51.528;5.076;2023-04-27T06:50:08;101580.00;;;5.44;66.92
60974;BME280;46846;51.528;5.076;2023-04-27T06:52:33;101585.28;;;5.48;67.06
60974;BME280;46846;51.528;5.076;2023-04-27T06:54:59;101576.47;;;5.51;67.02
60974;BME280;46846;51.528;5.076;2023-04-27T06:57:24;101572.06;;;5.53;66.35
60974;BME280;46846;51.528;5.076;2023-04-27T06:59:50;101566.81;;;5.52;67.35
60974;BME280;46846;51.528;5.076;2023-04-27T07:02:15;101574.69;;;5.59;67.14
60974;BME280;46846;51.528;5.076;2023-04-27T07:04:40;101575.56;;;5.63;66.55
60974;BME280;46846;51.528;5.076;2023-04-27T07:07:07;101572.03;;;5.64;67.04
60974;BME280;46846;51.528;5.076;2023-04-27T07:09:32;101566.78;;;5.67;67.30
60974;BME280;46846;51.528;5.076;2023-04-27T07:11:57;101580.84;;;5.69;66.71
60974;BME280;46846;51.528;5.076;2023-04-27T07:14:25;101574.69;;;5.72;67.48
60974;BME280;46846;51.528;5.076;2023-04-27T07:16:50;101579.06;;;5.78;67.19
60974;BME280;46846;51.528;5.076;2023-04-27T07:19:16;101579.06;;;5.81;67.19
60974;BME280;46846;51.528;5.076;2023-04-27T07:21:41;101573.75;;;5.82;67.53
60974;BME280;46846;51.528;5.076;2023-04-27T07:24:06;101574.63;;;5.87;67.70
60974;BME280;46846;51.528;5.076;2023-04-27T07:26:32;101571.97;;;5.92;67.27
60974;BME280;46846;51.528;5.076;2023-04-27T07:28:57;101565.81;;;5.96;67.38
60974;BME280;46846;51.528;5.076;2023-04-27T07:31:22;101564.91;;;6.00;68.02
60974;BME280;46846;51.528;5.076;2023-04-27T07:33:47;101571.09;;;6.04;67.85
60974;BME280;46846;51.528;5.076;2023-04-27T07:36:13;101571.97;;;6.08;68.14
60974;BME280;46846;51.528;5.076;2023-04-27T07:38:38;101569.31;;;6.11;66.05
60974;BME280;46846;51.528;5.076;2023-04-27T07:41:03;101571.06;;;6.17;68.30
60974;BME280;46846;51.528;5.076;2023-04-27T07:43:30;101574.56;;;6.20;68.34
60974;BME280;46846;51.528;5.076;2023-04-27T07:45:56;101563.06;;;6.26;68.24
60974;BME280;46846;51.528;5.076;2023-04-27T07:48:22;101563.06;;;6.32;67.94
60974;BME280;46846;51.528;5.076;2023-04-27T07:50:48;101560.38;;;6.37;67.91
60974;BME280;46846;51.528;5.076;2023-04-27T07:53:13;101558.59;;;6.42;68.12
60974;BME280;46846;51.528;5.076;2023-04-27T07:55:38;101561.22;;;6.48;68.16
60974;BME280;46846;51.528;5.076;2023-04-27T07:58:04;101557.66;;;6.54;68.04
60974;BME280;46846;51.528;5.076;2023-04-27T08:00:30;101572.59;;;6.60;67.83
60974;BME280;46846;51.528;5.076;2023-04-27T08:02:55;101571.69;;;6.64;68.12
60974;BME280;46846;51.528;5.076;2023-04-27T08:05:20;101569.88;;;6.70;67.52
60974;BME280;46846;51.528;5.076;2023-04-27T08:07:46;101580.41;;;6.77;67.57
60974;BME280;46846;51.528;5.076;2023-04-27T08:10:11;101583.03;;;6.81;67.74
60974;BME280;46846;51.528;5.076;2023-04-27T08:12:37;101580.34;;;6.88;67.52
60974;BME280;46846;51.528;5.076;2023-04-27T08:15:03;101574.13;;;6.95;68.11
60974;BME280;46846;51.528;5.076;2023-04-27T08:17:29;101570.56;;;7.01;68.12
60974;BME280;46846;51.528;5.076;2023-04-27T08:19:55;101565.22;;;7.07;68.04
60974;BME280;46846;51.528;5.076;2023-04-27T08:22:20;101557.22;;;7.13;67.20
60974;BME280;46846;51.528;5.076;2023-04-27T08:24:45;101551.00;;;7.20;66.77
60974;BME280;46846;51.528;5.076;2023-04-27T08:27:10;101542.09;;;7.26;67.02
60974;BME280;46846;51.528;5.076;2023-04-27T08:29:36;101544.72;;;7.31;65.91
60974;BME280;46846;51.528;5.076;2023-04-27T08:32:02;101546.41;;;7.39;66.35
60974;BME280;46846;51.528;5.076;2023-04-27T08:34:28;101538.41;;;7.46;65.36
60974;BME280;46846;51.528;5.076;2023-04-27T08:36:53;101541.00;;;7.50;66.32
60974;BME280;46846;51.528;5.076;2023-04-27T08:39:19;101545.34;;;7.58;63.54
60974;BME280;46846;51.528;5.076;2023-04-27T08:41:45;101548.78;;;7.66;65.43
60974;BME280;46846;51.528;5.076;2023-04-27T08:44:10;101546.91;;;7.74;66.02
60974;BME280;46846;51.528;5.076;2023-04-27T08:46:36;101544.16;;;7.82;66.20
60974;BME280;46846;51.528;5.076;2023-04-27T08:49:01;101532.66;;;7.85;66.67
60974;BME280;46846;51.528;5.076;2023-04-27T08:51:26;101524.63;;;7.91;66.29
60974;BME280;46846;51.528;5.076;2023-04-27T08:53:53;101528.97;;;7.98;66.66
60974;BME280;46846;51.528;5.076;2023-04-27T08:56:20;101537.69;;;8.06;66.64
60974;BME280;46846;51.528;5.076;2023-04-27T08:58:49;101534.97;;;8.13;66.92
60974;BME280;46846;51.528;5.076;2023-04-27T09:01:15;101533.09;;;8.21;66.76
60974;BME280;46846;51.528;5.076;2023-04-27T09:03:40;101536.50;;;8.29;67.07
60974;BME280;46846;51.528;5.076;2023-04-27T09:06:06;101541.72;;;8.39;66.49
60974;BME280;46846;51.528;5.076;2023-04-27T09:08:44;101538.03;;;8.47;67.05
60974;BME280;46846;51.528;5.076;2023-04-27T09:11:10;101531.75;;;8.56;66.04
60974;BME280;46846;51.528;5.076;2023-04-27T09:13:36;101529.88;;;8.63;66.48
60974;BME280;46846;51.528;5.076;2023-04-27T09:16:02;101528.06;;;8.67;61.94
60974;BME280;46846;51.528;5.076;2023-04-27T09:18:27;101534.19;;;8.72;59.80
60974;BME280;46846;51.528;5.076;2023-04-27T09:20:53;101529.56;;;8.85;65.17
60974;BME280;46846;51.528;5.076;2023-04-27T09:23:24;101536.47;;;8.95;65.26
60974;BME280;46846;51.528;5.076;2023-04-27T09:25:50;101536.47;;;8.95;54.05
60974;BME280;46846;51.528;5.076;2023-04-27T09:28:16;101531.91;;;9.03;62.15
60974;BME280;46846;51.528;5.076;2023-04-27T09:30:49;101529.09;;;9.13;63.21
60974;BME280;46846;51.528;5.076;2023-04-27T09:33:20;101531.69;;;9.16;63.92
60974;BME280;46846;51.528;5.076;2023-04-27T09:35:46;101519.97;;;9.28;59.52
60974;BME280;46846;51.528;5.076;2023-04-27T09:38:12;101524.22;;;9.38;65.01
60974;BME280;46846;51.528;5.076;2023-04-27T09:40:38;101523.22;;;9.44;64.02
60974;BME280;46846;51.528;5.076;2023-04-27T09:43:04;101520.53;;;9.47;60.74
60974;BME280;46846;51.528;5.076;2023-04-27T09:45:31;101522.22;;;9.51;63.76
60974;BME280;46846;51.528;5.076;2023-04-27T09:47:57;101514.13;;;9.57;62.93
60974;BME280;46846;51.528;5.076;2023-04-27T09:50:22;101503.47;;;9.59;62.52
60974;BME280;46846;51.528;5.076;2023-04-27T09:52:48;101507.69;;;9.69;64.05
60974;BME280;46846;51.528;5.076;2023-04-27T09:56:00;101507.56;;;9.77;64.86
60974;BME280;46846;51.528;5.076;2023-04-27T10:08:26;101515.81;;;10.06;63.04
60974;BME280;46846;51.528;5.076;2023-04-27T10:10:53;101517.47;;;10.11;64.87
60974;BME280;46846;51.528;5.076;2023-04-27T10:13:24;101518.28;;;10.15;60.10
60974;BME280;46846;51.528;5.076;2023-04-27T10:15:50;101510.25;;;10.17;62.26
60974;BME280;46846;51.528;5.076;2023-04-27T10:18:26;101512.97;;;10.13;55.12
60974;BME280;46846;51.528;5.076;2023-04-27T10:20:52;101511.94;;;10.21;59.80
60974;BME280;46846;51.528;5.076;2023-04-27T10:23:21;101520.66;;;10.28;60.89
60974;BME280;46846;51.528;5.076;2023-04-27T10:25:47;101517.69;;;10.42;63.73
60974;BME280;46846;51.528;5.076;2023-04-27T10:28:15;101511.44;;;10.46;64.45
60974;BME280;46846;51.528;5.076;2023-04-27T10:30:45;101513.19;;;10.47;65.10
60974;BME280;46846;51.528;5.076;2023-04-27T10:33:15;101509.56;;;10.49;64.47
60974;BME280;46846;51.528;5.076;2023-04-27T10:35:52;101504.13;;;10.54;64.60
60974;BME280;46846;51.528;5.076;2023-04-27T10:38:18;101496.06;;;10.57;63.53
60974;BME280;46846;51.528;5.076;2023-04-27T10:40:45;101496.03;;;10.59;62.36
60974;BME280;46846;51.528;5.076;2023-04-27T10:43:11;101488.09;;;10.57;56.16
60974;BME280;46846;51.528;5.076;2023-04-27T10:45:37;101478.25;;;10.61;50.69
60974;BME280;46846;51.528;5.076;2023-04-27T10:48:02;101485.19;;;10.66;47.72
60974;BME280;46846;51.528;5.076;2023-04-27T10:50:28;101483.19;;;10.76;61.51
60974;BME280;46846;51.528;5.076;2023-04-27T10:52:53;101479.53;;;10.80;54.83
60974;BME280;46846;51.528;5.076;2023-04-27T10:55:25;101477.88;;;10.76;57.62
60974;BME280;46846;51.528;5.076;2023-04-27T10:57:51;101469.72;;;10.83;54.32
60974;BME280;46846;51.528;5.076;2023-04-27T11:00:27;101466.81;;;10.92;53.69
60974;BME280;46846;51.528;5.076;2023-04-27T11:02:52;101463.03;;;11.02;61.86
60974;BME280;46846;51.528;5.076;2023-04-27T11:05:19;101470.88;;;11.07;60.94
60974;BME280;46846;51.528;5.076;2023-04-27T11:07:46;101465.69;;;11.02;62.17
60974;BME280;46846;51.528;5.076;2023-04-27T11:10:15;101455.69;;;11.11;63.15
60974;BME280;46846;51.528;5.076;2023-04-27T11:12:41;101453.31;;;11.00;53.52
60974;BME280;46846;51.528;5.076;2023-04-27T11:15:06;101456.78;;;11.03;55.67
60974;BME280;46846;51.528;5.076;2023-04-27T11:17:33;101453.41;;;10.97;52.88
60974;BME280;46846;51.528;5.076;2023-04-27T11:19:58;101453.97;;;11.10;47.44
60974;BME280;46846;51.528;5.076;2023-04-27T11:22:23;101455.38;;;11.23;60.60
60974;BME280;46846;51.528;5.076;2023-04-27T11:24:49;101450.13;;;11.20;48.74
60974;BME280;46846;51.528;5.076;2023-04-27T11:27:14;101450.13;;;11.20;51.39
60974;BME280;46846;51.528;5.076;2023-04-27T11:29:40;101449.97;;;11.26;57.98
60974;BME280;46846;51.528;5.076;2023-04-27T11:32:05;101444.63;;;11.26;53.29
60974;BME280;46846;51.528;5.076;2023-04-27T11:34:31;101447.03;;;11.35;61.32
60974;BME280;46846;51.528;5.076;2023-04-27T11:37:03;101449.78;;;11.32;62.65
60974;BME280;46846;51.528;5.076;2023-04-27T11:39:33;101438.25;;;11.32;62.30
60974;BME280;46846;51.528;5.076;2023-04-27T11:44:55;101437.28;;;11.34;61.00
60974;BME280;46846;51.528;5.076;2023-04-27T11:47:21;101442.53;;;11.38;61.65
60974;BME280;46846;51.528;5.076;2023-04-27T11:49:47;101440.72;;;11.40;62.65
60974;BME280;46846;51.528;5.076;2023-04-27T11:52:13;101435.28;;;11.43;63.04
60974;BME280;46846;51.528;5.076;2023-04-27T11:54:44;101440.59;;;11.43;62.86
60974;BME280;46846;51.528;5.076;2023-04-27T11:57:10;101430.69;;;11.48;63.01
60974;BME280;46846;51.528;5.076;2023-04-27T11:59:36;101428.81;;;11.52;62.08
60974;BME280;46846;51.528;5.076;2023-04-27T12:02:01;101433.38;;;11.48;61.35
60974;BME280;46846;51.528;5.076;2023-04-27T12:04:27;101421.66;;;11.54;61.98
60974;BME280;46846;51.528;5.076;2023-04-27T12:06:53;101422.66;;;11.49;58.39
60974;BME280;46846;51.528;5.076;2023-04-27T12:09:18;101423.31;;;11.58;57.40
60974;BME280;46846;51.528;5.076;2023-04-27T12:11:43;101423.00;;;11.69;57.33
60974;BME280;46846;51.528;5.076;2023-04-27T12:14:09;101422.25;;;11.63;56.67
60974;BME280;46846;51.528;5.076;2023-04-27T12:16:34;101418.50;;;11.71;53.50
60974;BME280;46846;51.528;5.076;2023-04-27T12:18:59;101414.63;;;11.81;57.29
60974;BME280;46846;51.528;5.076;2023-04-27T12:21:25;101405.69;;;11.82;57.53
60974;BME280;46846;51.528;5.076;2023-04-27T12:23:50;101413.75;;;11.81;51.17
60974;BME280;46846;51.528;5.076;2023-04-27T12:26:16;101415.41;;;11.85;49.97
60974;BME280;46846;51.528;5.076;2023-04-27T12:28:42;101414.22;;;11.95;53.74
60974;BME280;46846;51.528;5.076;2023-04-27T12:31:07;101420.31;;;11.99;55.63
60974;BME280;46846;51.528;5.076;2023-04-27T12:33:33;101427.25;;;12.06;49.05
60974;BME280;46846;51.528;5.076;2023-04-27T12:35:58;101422.63;;;12.11;55.61
60974;BME280;46846;51.528;5.076;2023-04-27T12:38:23;101418.97;;;12.14;45.15
60974;BME280;46846;51.528;5.076;2023-04-27T12:40:48;101415.34;;;12.16;54.67
60974;BME280;46846;51.528;5.076;2023-04-27T12:43:14;101399.16;;;12.23;58.01
60974;BME280;46846;51.528;5.076;2023-04-27T12:45:39;101403.41;;;12.28;58.20
60974;BME280;46846;51.528;5.076;2023-04-27T12:48:05;101400.88;;;12.24;55.00
60974;BME280;46846;51.528;5.076;2023-04-27T12:50:30;101397.06;;;12.33;57.72
60974;BME280;46846;51.528;5.076;2023-04-27T12:52:56;101398.84;;;12.32;47.48
60974;BME280;46846;51.528;5.076;2023-04-27T12:55:21;101396.91;;;12.37;52.36
60974;BME280;46846;51.528;5.076;2023-04-27T12:57:46;101391.25;;;12.47;53.17
60974;BME280;46846;51.528;5.076;2023-04-27T13:00:12;101389.31;;;12.52;57.59
60974;BME280;46846;51.528;5.076;2023-04-27T13:02:37;101389.19;;;12.55;57.75